createdAt,value
2023-03-02T00:01:12.233Z,21.20
2023-03-02T00:03:43.032Z,19.73
2023-03-02T00:06:11.055Z,19.43
2023-03-02T00:08:39.896Z,21.57
2023-03-02T00:11:07.787Z,21.77
2023-03-02T00:13:38.082Z,22.77
2023-03-02T00:16:06.666Z,23.47
2023-03-02T00:18:34.519Z,22.63
2023-03-02T00:21:03.709Z,21.83
2023-03-02T00:23:31.423Z,21.53
2023-03-02T00:25:59.209Z,20.17
2023-03-02T00:28:27.342Z,19.97
2023-03-02T00:30:55.078Z,19.33
2023-03-02T00:33:23.737Z,20.53
2023-03-02T00:35:51.603Z,20.80
2023-03-02T00:38:20.698Z,21.70
2023-03-02T00:40:49.977Z,21.53
2023-03-02T00:43:17.977Z,21.43
2023-03-02T00:45:45.750Z,21.40
2023-03-02T00:48:13.517Z,21.60
2023-03-02T00:50:41.862Z,19.67
2023-03-02T00:53:09.790Z,21.07
2023-03-02T00:55:39.504Z,19.67
2023-03-02T00:58:07.423Z,19.97
2023-03-02T01:00:35.631Z,19.90
2023-03-02T01:03:03.422Z,16.80
2023-03-02T01:05:31.258Z,18.37
2023-03-02T01:07:59.045Z,16.67
2023-03-02T01:10:26.780Z,17.47
2023-03-02T01:12:55.841Z,18.87
2023-03-02T01:15:23.654Z,18.23
2023-03-02T01:17:51.768Z,19.17
2023-03-02T01:20:19.651Z,16.63
2023-03-02T01:22:47.370Z,19.93
2023-03-02T01:25:15.260Z,17.70
2023-03-02T01:27:43.018Z,17.87
2023-03-02T01:30:13.678Z,17.07
2023-03-02T01:32:41.377Z,18.60
2023-03-02T01:35:10.078Z,17.17
2023-03-02T01:37:37.802Z,17.60
2023-03-02T01:40:06.871Z,16.90
2023-03-02T01:42:39.833Z,16.77
2023-03-02T01:45:58.315Z,16.77
2023-03-02T01:48:32.475Z,15.73
2023-03-02T01:51:01.747Z,16.70
2023-03-02T01:53:32.330Z,15.93
2023-03-02T01:56:00.768Z,16.23
2023-03-02T01:58:29.838Z,15.40
2023-03-02T02:00:59.056Z,16.13
2023-03-02T02:03:31.603Z,16.70
2023-03-02T02:06:10.020Z,16.97
2023-03-02T02:08:39.366Z,16.10
2023-03-02T02:11:07.475Z,16.17
2023-03-02T02:13:35.482Z,17.23
2023-03-02T02:16:03.415Z,15.43
2023-03-02T02:18:32.603Z,15.27
2023-03-02T02:21:00.629Z,16.30
2023-03-02T02:23:34.598Z,15.13
2023-03-02T02:26:18.500Z,14.67
2023-03-02T02:29:08.292Z,15.17
2023-03-02T02:31:40.105Z,16.17
2023-03-02T02:34:12.961Z,15.07
2023-03-02T02:36:44.367Z,15.50
2023-03-02T02:39:18.545Z,17.27
2023-03-02T02:41:49.395Z,15.53
2023-03-02T02:44:19.338Z,15.43
2023-03-02T02:46:47.217Z,15.80
2023-03-02T02:49:26.992Z,15.40
2023-03-02T02:51:54.896Z,15.60
2023-03-02T02:54:24.048Z,14.97
2023-03-02T02:56:54.335Z,15.30
2023-03-02T02:59:24.430Z,14.87
2023-03-02T03:01:53.156Z,17.50
2023-03-02T03:04:23.837Z,15.27
2023-03-02T03:06:54.173Z,14.30
2023-03-02T03:09:22.408Z,14.07
2023-03-02T03:11:53.677Z,13.57
2023-03-02T03:14:23.362Z,14.40
2023-03-02T03:16:52.296Z,14.13
2023-03-02T03:19:23.038Z,14.03
2023-03-02T03:21:52.588Z,14.37
2023-03-02T03:24:21.195Z,13.97
2023-03-02T03:26:49.463Z,15.10
2023-03-02T03:29:19.727Z,14.50
2023-03-02T03:31:47.449Z,14.37
2023-03-02T03:34:15.211Z,15.30
2023-03-02T03:36:43.340Z,14.50
2023-03-02T03:39:13.298Z,14.43
2023-03-02T03:41:41.616Z,13.87
2023-03-02T03:44:09.381Z,13.73
2023-03-02T03:46:39.006Z,14.37
2023-03-02T03:49:07.021Z,13.63
2023-03-02T03:51:35.382Z,12.70
2023-03-02T03:54:04.081Z,13.60
2023-03-02T03:56:34.500Z,14.00
2023-03-02T03:59:07.208Z,13.50
2023-03-02T04:01:38.552Z,13.97
2023-03-02T04:04:08.696Z,13.27
2023-03-02T04:06:36.814Z,13.73
2023-03-02T04:09:05.679Z,12.50
2023-03-02T04:11:33.859Z,13.40
2023-03-02T04:14:01.820Z,13.00
2023-03-02T04:16:30.569Z,12.53
2023-03-02T04:18:59.986Z,12.93
2023-03-02T04:21:28.056Z,11.93
2023-03-02T04:23:56.058Z,12.73
2023-03-02T04:26:23.973Z,12.80
2023-03-02T04:28:51.723Z,12.60
2023-03-02T04:31:19.517Z,13.20
2023-03-02T04:33:47.305Z,13.23
2023-03-02T04:36:16.357Z,12.37
2023-03-02T04:38:44.077Z,13.97
2023-03-02T04:41:11.803Z,13.27
2023-03-02T04:43:39.516Z,13.30
2023-03-02T04:46:07.319Z,12.23
2023-03-02T04:48:35.212Z,13.60
2023-03-02T04:51:02.968Z,12.93
2023-03-02T04:53:32.029Z,15.73
2023-03-02T04:55:59.953Z,12.93
2023-03-02T04:58:27.692Z,13.63
2023-03-02T05:01:03.643Z,12.90
2023-03-02T05:03:31.378Z,36.87
2023-03-02T05:05:59.145Z,15.68
2023-03-02T05:08:26.941Z,13.17
2023-03-02T05:10:56.025Z,12.90
2023-03-02T05:13:23.737Z,12.57
2023-03-02T05:15:53.025Z,13.77
2023-03-02T05:18:21.380Z,12.70
2023-03-02T05:20:50.327Z,13.03
2023-03-02T05:23:25.199Z,14.83
2023-03-02T05:25:56.445Z,13.50
2023-03-02T05:28:26.691Z,11.30
2023-03-02T05:30:55.027Z,12.47
2023-03-02T05:33:22.783Z,12.20
2023-03-02T05:35:50.578Z,12.27
2023-03-02T05:38:18.340Z,12.43
2023-03-02T05:40:46.063Z,12.17
2023-03-02T05:43:18.445Z,11.80
2023-03-02T05:45:46.238Z,12.17
2023-03-02T05:48:14.721Z,12.67
2023-03-02T05:50:42.587Z,12.57
2023-03-02T05:53:10.503Z,12.77
2023-03-02T05:55:38.508Z,13.63
2023-03-02T05:58:09.032Z,12.53
2023-03-02T06:00:38.387Z,13.07
2023-03-02T06:03:06.202Z,12.90
2023-03-02T06:05:34.484Z,13.13
2023-03-02T06:08:02.355Z,12.93
2023-03-02T06:10:30.416Z,12.63
2023-03-02T06:12:58.224Z,13.00
2023-03-02T06:15:29.610Z,12.87
2023-03-02T06:17:58.745Z,14.90
2023-03-02T06:20:26.928Z,13.93
2023-03-02T06:22:54.826Z,13.33
2023-03-02T06:25:24.400Z,14.60
2023-03-02T06:27:53.754Z,12.40
2023-03-02T06:30:24.511Z,13.17
2023-03-02T06:32:53.553Z,13.87
2023-03-02T06:35:23.949Z,14.07
2023-03-02T06:37:52.066Z,14.37
2023-03-02T06:40:21.624Z,13.10
2023-03-02T06:42:49.372Z,13.67
2023-03-02T06:45:17.222Z,15.63
2023-03-02T06:47:44.961Z,15.53
2023-03-02T06:50:13.160Z,15.73
2023-03-02T06:52:42.232Z,18.53
2023-03-02T06:55:10.710Z,16.80
2023-03-02T06:57:38.629Z,17.03
2023-03-02T07:00:09.885Z,18.93
2023-03-02T07:02:38.471Z,20.00
2023-03-02T07:05:07.605Z,20.57
2023-03-02T07:07:35.380Z,16.97
2023-03-02T07:10:04.796Z,17.30
2023-03-02T07:12:32.541Z,16.17
2023-03-02T07:15:00.280Z,16.20
2023-03-02T07:17:28.070Z,17.00
2023-03-02T07:19:55.929Z,15.63
2023-03-02T07:22:23.668Z,14.87
2023-03-02T07:24:51.360Z,15.37
2023-03-02T07:27:20.418Z,16.00
2023-03-02T07:29:48.166Z,16.07
2023-03-02T07:32:15.921Z,16.13
2023-03-02T07:34:43.662Z,17.07
2023-03-02T07:37:11.529Z,16.17
2023-03-02T07:39:39.239Z,17.30
2023-03-02T07:42:08.905Z,16.90
2023-03-02T07:44:37.996Z,17.20
2023-03-02T07:47:06.276Z,15.97
2023-03-02T07:49:35.336Z,15.70
2023-03-02T07:52:03.163Z,15.83
2023-03-02T07:54:31.089Z,17.20
2023-03-02T07:56:59.500Z,16.23
2023-03-02T07:59:28.355Z,17.07
2023-03-02T08:01:58.271Z,17.07
2023-03-02T08:04:26.995Z,17.63
2023-03-02T08:06:54.845Z,18.33
2023-03-02T08:09:22.534Z,18.67
2023-03-02T08:11:50.247Z,17.40
2023-03-02T08:14:18.087Z,17.83
2023-03-02T08:16:45.803Z,18.27
2023-03-02T08:19:14.933Z,19.47
2023-03-02T08:21:42.919Z,20.20
2023-03-02T08:24:11.664Z,20.37
2023-03-02T08:26:39.824Z,19.17
2023-03-02T08:29:07.916Z,20.23
2023-03-02T08:31:36.065Z,19.43
2023-03-02T08:34:04.214Z,18.70
2023-03-02T08:36:33.497Z,17.63
2023-03-02T08:39:01.444Z,17.50
2023-03-02T08:41:29.497Z,16.77
2023-03-02T08:43:57.371Z,16.03
2023-03-02T08:46:25.117Z,17.00
2023-03-02T08:48:53.003Z,16.63
2023-03-02T08:51:22.672Z,15.77
2023-03-02T08:53:55.084Z,15.90
2023-03-02T08:56:24.443Z,15.40
2023-03-02T08:58:53.890Z,15.73
2023-03-02T09:01:24.006Z,15.87
2023-03-02T09:03:52.756Z,15.73
2023-03-02T09:06:20.581Z,15.40
2023-03-02T09:08:48.961Z,15.27
2023-03-02T09:11:18.417Z,15.80
2023-03-02T09:13:46.276Z,16.10
2023-03-02T09:16:14.649Z,15.23
2023-03-02T09:18:42.606Z,14.30
2023-03-02T09:21:11.314Z,15.97
2023-03-02T09:23:39.106Z,14.77
2023-03-02T09:26:07.363Z,14.93
2023-03-02T09:28:37.544Z,15.38
2023-03-02T09:31:07.516Z,15.90
2023-03-02T09:33:35.667Z,15.15
2023-03-02T09:36:07.318Z,15.50
2023-03-02T09:38:35.079Z,15.48
2023-03-02T09:41:20.230Z,14.98
2023-03-02T09:44:00.067Z,14.93
2023-03-02T09:46:31.270Z,14.75
2023-03-02T09:49:17.255Z,14.18
2023-03-02T09:51:48.229Z,15.30
2023-03-02T09:54:20.289Z,15.18
2023-03-02T09:56:51.286Z,15.63
2023-03-02T09:59:27.458Z,14.68
2023-03-02T10:02:02.100Z,14.60
2023-03-02T10:04:32.696Z,15.70
2023-03-02T10:07:12.769Z,14.10
2023-03-02T10:09:41.811Z,14.63
2023-03-02T10:12:24.432Z,15.23
2023-03-02T10:14:58.228Z,15.52
2023-03-02T10:17:43.795Z,14.90
2023-03-02T10:20:18.108Z,15.63
2023-03-02T10:22:49.156Z,15.02
2023-03-02T10:25:25.048Z,15.05
2023-03-02T10:27:58.592Z,15.80
2023-03-02T10:30:31.408Z,15.47
2023-03-02T10:33:03.820Z,16.10
2023-03-02T10:35:32.887Z,16.70
2023-03-02T10:38:03.515Z,17.43
2023-03-02T10:40:41.937Z,16.63
2023-03-02T10:43:17.689Z,18.93
2023-03-02T10:45:47.513Z,18.57
2023-03-02T10:48:16.065Z,19.57
2023-03-02T10:50:45.157Z,20.07
2023-03-02T10:53:19.896Z,20.13
2023-03-02T10:55:48.641Z,18.23
2023-03-02T10:58:25.998Z,21.23
2023-03-02T11:01:01.197Z,23.23
2023-03-02T11:03:30.093Z,23.10
2023-03-02T11:05:58.692Z,22.60
2023-03-02T11:08:28.381Z,23.17
2023-03-02T11:11:00.747Z,23.70
2023-03-02T11:13:35.004Z,24.33
2023-03-02T11:16:06.050Z,23.03
2023-03-02T11:18:38.732Z,25.67
2023-03-02T11:21:11.223Z,25.87
2023-03-02T11:23:47.007Z,25.77
2023-03-02T11:26:21.505Z,25.70
2023-03-02T11:28:59.804Z,27.43
2023-03-02T11:31:34.575Z,27.13
2023-03-02T11:34:17.922Z,28.53
2023-03-02T11:36:57.175Z,26.83
2023-03-02T11:39:29.736Z,28.43
2023-03-02T11:41:57.753Z,26.83
2023-03-02T11:44:27.423Z,28.23
2023-03-02T11:47:01.622Z,27.47
2023-03-02T11:49:38.972Z,27.10
2023-03-02T11:52:16.112Z,26.30
2023-03-02T11:54:46.912Z,27.87
2023-03-02T11:57:22.030Z,29.10
2023-03-02T11:59:51.208Z,29.57
2023-03-02T12:02:21.403Z,30.40
2023-03-02T12:04:50.100Z,29.43
2023-03-02T12:07:22.776Z,30.83
2023-03-02T12:10:24.018Z,31.33
2023-03-02T12:13:04.619Z,31.10
2023-03-02T12:15:41.191Z,31.67
2023-03-02T12:18:30.159Z,30.40
2023-03-02T12:21:03.295Z,28.13
2023-03-02T12:23:32.901Z,28.93
2023-03-02T12:26:07.724Z,28.90
2023-03-02T12:28:37.767Z,28.20
2023-03-02T12:31:08.909Z,28.17
2023-03-02T12:33:44.764Z,29.70
2023-03-02T12:36:16.629Z,28.53
2023-03-02T12:38:51.193Z,28.53
2023-03-02T12:41:44.391Z,29.83
2023-03-02T12:44:31.642Z,29.13
2023-03-02T12:47:02.838Z,29.20
2023-03-02T12:49:47.407Z,27.70
2023-03-02T12:52:27.317Z,30.07
2023-03-02T12:55:07.951Z,27.00
2023-03-02T12:57:39.708Z,29.30
2023-03-02T13:00:17.697Z,28.87
2023-03-02T13:02:48.985Z,30.27
2023-03-02T13:05:22.547Z,29.50
2023-03-02T13:07:57.792Z,28.10
2023-03-02T13:10:30.364Z,29.47
2023-03-02T13:12:59.334Z,29.70
2023-03-02T13:15:29.090Z,30.17
2023-03-02T13:17:59.020Z,28.13
2023-03-02T13:20:30.839Z,28.53
2023-03-02T13:22:58.780Z,28.73
2023-03-02T13:25:28.637Z,28.87
2023-03-02T13:28:00.134Z,28.73
2023-03-02T13:30:30.705Z,27.00
2023-03-02T13:33:03.193Z,28.20
2023-03-02T13:35:34.435Z,28.67
2023-03-02T13:38:05.730Z,29.80
2023-03-02T13:40:42.415Z,30.47
2023-03-02T13:43:35.860Z,28.10
2023-03-02T13:46:05.292Z,28.03
2023-03-02T13:48:33.384Z,29.63
2023-03-02T13:51:04.502Z,30.00
2023-03-02T13:53:38.051Z,29.13
2023-03-02T13:56:06.267Z,28.50
2023-03-02T13:58:39.279Z,29.07
2023-03-02T14:01:07.643Z,28.37
2023-03-02T14:03:35.516Z,27.80
2023-03-02T14:06:06.008Z,27.40
2023-03-02T14:08:33.758Z,25.93
2023-03-02T14:11:03.817Z,27.57
2023-03-02T14:13:38.008Z,25.43
2023-03-02T14:16:06.558Z,27.33
2023-03-02T14:18:38.899Z,25.33
2023-03-02T14:21:11.868Z,25.87
2023-03-02T14:23:41.119Z,26.17
2023-03-02T14:26:33.495Z,25.27
2023-03-02T14:29:06.059Z,26.87
2023-03-02T14:31:34.610Z,25.53
2023-03-02T14:34:02.716Z,23.80
2023-03-02T14:36:34.514Z,24.10
2023-03-02T14:39:06.201Z,23.10
2023-03-02T14:41:44.007Z,22.90
2023-03-02T14:44:19.245Z,22.73
2023-03-02T14:46:47.520Z,22.77
2023-03-02T14:49:15.505Z,23.37
2023-03-02T14:51:48.924Z,21.70
2023-03-02T14:54:20.172Z,22.17
2023-03-02T14:56:50.416Z,21.93
2023-03-02T14:59:18.746Z,19.17
2023-03-02T15:01:46.523Z,18.30
2023-03-02T15:04:14.339Z,16.90
2023-03-02T15:06:46.995Z,16.73
2023-03-02T15:09:14.900Z,17.03
2023-03-02T15:11:42.626Z,18.17
2023-03-02T15:14:10.371Z,18.17
2023-03-02T15:16:38.109Z,15.20
2023-03-02T15:19:06.231Z,17.13
2023-03-02T15:21:34.225Z,17.13
2023-03-02T15:24:03.560Z,18.57
2023-03-02T15:26:31.304Z,20.00
2023-03-02T15:28:59.087Z,20.57
2023-03-02T15:31:28.173Z,22.60
2023-03-02T15:33:56.480Z,22.30
2023-03-02T15:36:25.677Z,24.77
2023-03-02T15:38:53.875Z,25.93
2023-03-02T15:41:23.062Z,27.43
2023-03-02T15:43:52.120Z,28.87
2023-03-02T15:46:20.414Z,33.90
2023-03-02T15:48:48.177Z,30.53
2023-03-02T15:51:15.920Z,31.70
2023-03-02T15:53:43.655Z,33.30
2023-03-02T15:56:13.896Z,33.03
2023-03-02T15:58:47.019Z,32.23
2023-03-02T16:01:16.038Z,34.23
2023-03-02T16:03:45.325Z,36.30
2023-03-02T16:06:15.638Z,36.43
2023-03-02T16:08:43.399Z,35.50
2023-03-02T16:11:11.914Z,37.60
2023-03-02T16:13:39.697Z,34.47
2023-03-02T16:16:10.357Z,34.90
2023-03-02T16:18:38.238Z,36.07
2023-03-02T16:21:06.495Z,35.13
2023-03-02T16:23:34.807Z,35.60
2023-03-02T16:26:09.190Z,37.07
2023-03-02T16:28:37.368Z,35.17
2023-03-02T16:31:06.943Z,35.20
2023-03-02T16:33:36.940Z,38.33
2023-03-02T16:36:05.063Z,35.30
2023-03-02T16:38:33.384Z,37.23
2023-03-02T16:41:01.919Z,37.87
2023-03-02T16:43:29.831Z,38.90
2023-03-02T16:45:57.718Z,35.83
2023-03-02T16:48:25.556Z,37.60
2023-03-02T16:50:58.914Z,36.57
2023-03-02T16:53:26.722Z,35.33
2023-03-02T16:55:54.497Z,35.90
2023-03-02T16:58:22.272Z,35.93
2023-03-02T17:00:50.330Z,34.93
2023-03-02T17:03:18.500Z,35.83
2023-03-02T17:05:46.273Z,35.17
2023-03-02T17:08:17.592Z,34.70
2023-03-02T17:10:45.709Z,34.40
2023-03-02T17:13:15.514Z,36.23
2023-03-02T17:15:43.645Z,34.37
2023-03-02T17:18:11.756Z,35.23
2023-03-02T17:20:40.261Z,37.77
2023-03-02T17:23:08.149Z,36.37
2023-03-02T17:25:37.226Z,35.77
2023-03-02T17:28:05.234Z,38.30
2023-03-02T17:30:32.984Z,37.87
2023-03-02T17:33:00.799Z,36.50
2023-03-02T17:35:28.585Z,38.40
2023-03-02T17:37:56.388Z,39.57
2023-03-02T17:40:24.700Z,36.93
2023-03-02T17:42:56.764Z,39.73
2023-03-02T17:45:27.950Z,77.47
2023-03-02T17:47:57.452Z,39.33
2023-03-02T17:50:26.034Z,38.47
2023-03-02T17:52:54.281Z,38.67
2023-03-02T17:55:22.251Z,37.17
2023-03-02T17:57:50.017Z,37.57
2023-03-02T18:00:22.039Z,37.83
2023-03-02T18:02:50.413Z,38.40
2023-03-02T18:05:18.314Z,36.03
2023-03-02T18:07:46.064Z,38.23
2023-03-02T18:10:14.953Z,37.20
2023-03-02T18:12:42.844Z,36.93
2023-03-02T18:15:11.864Z,35.90
2023-03-02T18:17:41.268Z,37.17
2023-03-02T18:20:10.418Z,37.00
2023-03-02T18:22:38.176Z,36.77
2023-03-02T18:25:07.087Z,38.03
2023-03-02T18:27:34.910Z,38.40
2023-03-02T18:30:02.810Z,44.33
2023-03-02T18:32:30.758Z,38.57
2023-03-02T18:34:59.975Z,41.70
2023-03-02T18:37:27.780Z,40.03
2023-03-02T18:39:55.599Z,39.53
2023-03-02T18:42:23.513Z,40.83
2023-03-02T18:44:51.353Z,41.47
2023-03-02T18:47:19.280Z,39.93
2023-03-02T18:49:47.468Z,38.93
2023-03-02T18:52:16.797Z,41.83
2023-03-02T18:54:44.768Z,41.83
2023-03-02T18:57:12.785Z,42.00
2023-03-02T18:59:40.838Z,39.93
2023-03-02T19:02:12.717Z,39.53
2023-03-02T19:04:41.125Z,39.03
2023-03-02T19:07:09.058Z,39.00
2023-03-02T19:09:38.243Z,39.50
2023-03-02T19:12:06.608Z,38.63
2023-03-02T19:14:34.401Z,38.77
2023-03-02T19:17:02.168Z,40.93
2023-03-02T19:19:30.240Z,41.30
2023-03-02T19:21:58.930Z,41.27
2023-03-02T19:24:26.661Z,38.90
2023-03-02T19:26:55.760Z,41.80
2023-03-02T19:29:23.583Z,40.37
2023-03-02T19:31:51.435Z,39.57
2023-03-02T19:34:19.309Z,38.67
2023-03-02T19:36:47.432Z,38.00
2023-03-02T19:39:15.252Z,38.40
2023-03-02T19:41:43.085Z,38.20
2023-03-02T19:44:12.568Z,41.27
2023-03-02T19:46:40.599Z,39.53
2023-03-02T19:49:08.379Z,36.70
2023-03-02T19:51:36.219Z,41.47
2023-03-02T19:54:04.270Z,38.67
2023-03-02T19:56:34.990Z,38.70
2023-03-02T19:59:03.002Z,39.53
2023-03-02T20:01:32.222Z,37.57
2023-03-02T20:04:00.270Z,40.23
2023-03-02T20:06:31.808Z,39.33
2023-03-02T20:09:02.457Z,39.43
2023-03-02T20:11:31.387Z,37.03
2023-03-02T20:14:02.179Z,37.57
2023-03-02T20:16:30.572Z,38.47
2023-03-02T20:19:01.953Z,38.57
2023-03-02T20:21:29.830Z,42.60
2023-03-02T20:23:57.749Z,40.10
2023-03-02T20:26:25.983Z,41.10
2023-03-02T20:28:55.588Z,41.27
2023-03-02T20:31:25.576Z,41.47
2023-03-02T20:33:55.287Z,41.70
2023-03-02T20:36:27.114Z,41.70
2023-03-02T20:38:58.848Z,41.30
2023-03-02T20:41:27.152Z,41.83
2023-03-02T20:43:54.929Z,41.90
2023-03-02T20:46:27.373Z,36.37
2023-03-02T20:48:55.319Z,35.77
2023-03-02T20:51:24.890Z,36.80
2023-03-02T20:53:53.174Z,38.13
2023-03-02T20:56:21.677Z,38.50
2023-03-02T20:58:49.915Z,39.53
2023-03-02T21:01:19.324Z,36.07
2023-03-02T21:03:47.592Z,37.00
2023-03-02T21:06:16.516Z,37.17
2023-03-02T21:08:47.936Z,37.07
2023-03-02T21:11:19.202Z,37.40
2023-03-02T21:13:48.612Z,36.60
2023-03-02T21:16:19.786Z,34.93
2023-03-02T21:18:47.617Z,35.70
2023-03-02T21:21:15.660Z,35.93
2023-03-02T21:23:44.811Z,36.00
2023-03-02T21:26:14.171Z,35.63
2023-03-02T21:28:44.290Z,35.70
2023-03-02T21:31:12.494Z,34.87
2023-03-02T21:33:40.264Z,34.60
2023-03-02T21:36:09.138Z,35.57
2023-03-02T21:38:36.851Z,32.13
2023-03-02T21:41:06.191Z,32.63
2023-03-02T21:43:34.135Z,34.70
2023-03-02T21:46:02.258Z,35.27
2023-03-02T21:48:30.120Z,33.47
2023-03-02T21:50:57.880Z,32.80
2023-03-02T21:53:25.577Z,34.63
2023-03-02T21:55:54.979Z,33.30
2023-03-02T21:58:24.069Z,33.03
2023-03-02T22:00:51.865Z,32.37
2023-03-02T22:03:19.645Z,30.97
2023-03-02T22:05:47.438Z,31.50
2023-03-02T22:08:18.327Z,32.07
2023-03-02T22:10:47.637Z,29.97
2023-03-02T22:13:18.638Z,30.47
2023-03-02T22:15:48.726Z,28.37
2023-03-02T22:18:18.235Z,28.20
2023-03-02T22:20:48.491Z,29.10
2023-03-02T22:23:17.627Z,28.00
2023-03-02T22:25:45.945Z,26.80
2023-03-02T22:28:17.763Z,27.47
2023-03-02T22:30:47.343Z,27.13
2023-03-02T22:33:19.841Z,28.03
2023-03-02T22:35:47.961Z,27.20
2023-03-02T22:38:23.286Z,27.70
2023-03-02T22:40:51.728Z,28.80
2023-03-02T22:43:25.762Z,28.97
2023-03-02T22:45:59.023Z,29.47
2023-03-02T22:48:29.105Z,30.27
2023-03-02T22:50:56.884Z,30.80
2023-03-02T22:53:28.302Z,28.77
2023-03-02T22:55:58.674Z,30.13
2023-03-02T22:58:40.405Z,31.30
2023-03-02T23:01:20.856Z,30.97
2023-03-02T23:03:50.182Z,29.80
2023-03-02T23:06:26.323Z,31.30
2023-03-02T23:08:55.597Z,30.80
2023-03-02T23:11:24.962Z,29.90
2023-03-02T23:13:54.108Z,28.23
2023-03-02T23:16:25.222Z,29.23
2023-03-02T23:18:54.819Z,29.17
2023-03-02T23:21:28.310Z,29.37
2023-03-02T23:23:56.516Z,27.50
2023-03-02T23:26:24.253Z,28.23
2023-03-02T23:28:52.387Z,28.23
2023-03-02T23:31:21.232Z,26.10
2023-03-02T23:33:50.403Z,28.27
2023-03-02T23:36:21.161Z,29.70
2023-03-02T23:38:49.821Z,29.87
2023-03-02T23:41:18.297Z,28.57
2023-03-02T23:43:46.485Z,30.07
2023-03-02T23:46:14.525Z,27.70
2023-03-02T23:48:42.669Z,29.43
2023-03-02T23:51:11.893Z,27.50
2023-03-02T23:53:39.998Z,25.20
2023-03-02T23:56:08.115Z,25.97
2023-03-02T23:58:35.861Z,26.93
